createdAt,value
2022-10-11T00:01:13.724Z,99382.16
2022-10-11T00:03:42.494Z,99387.28
2022-10-11T00:06:11.334Z,99396.75
2022-10-11T00:08:39.991Z,99397.38
2022-10-11T00:11:09.989Z,99399.00
2022-10-11T00:13:38.692Z,99405.19
2022-10-11T00:16:14.258Z,99403.91
2022-10-11T00:18:43.888Z,99402.88
2022-10-11T00:21:18.576Z,99404.28
2022-10-11T00:23:47.263Z,99407.34
2022-10-11T00:26:16.331Z,99415.97
2022-10-11T00:28:45.083Z,99415.75
2022-10-11T00:31:17.112Z,99415.75
2022-10-11T00:33:46.003Z,99412.63
2022-10-11T00:36:17.084Z,99415.31
2022-10-11T00:38:46.734Z,99423.34
2022-10-11T00:41:16.477Z,99428.53
2022-10-11T00:43:45.679Z,99429.78
2022-10-11T00:46:33.477Z,99427.94
2022-10-11T00:49:08.565Z,99436.56
2022-10-11T00:51:49.472Z,99437.16
2022-10-11T00:54:24.206Z,99443.13
2022-10-11T00:57:00.785Z,99438.72
2022-10-11T00:59:36.058Z,99437.81
2022-10-11T01:02:07.927Z,99438.22
2022-10-11T01:04:36.770Z,99445.94
2022-10-11T01:07:05.703Z,99446.91
2022-10-11T01:09:35.346Z,99444.16
2022-10-11T01:12:13.399Z,99443.25
2022-10-11T01:15:16.754Z,99453.06
2022-10-11T01:18:00.804Z,99449.47
2022-10-11T01:20:41.703Z,99457.66
2022-10-11T01:24:08.701Z,99454.56
2022-10-11T01:27:38.101Z,99468.09
2022-10-11T01:30:25.631Z,99463.91
2022-10-11T01:33:19.902Z,99468.81
2022-10-11T01:36:06.569Z,99466.72
2022-10-11T01:38:43.128Z,99466.28
2022-10-11T01:41:18.367Z,99469.09
2022-10-11T01:43:49.736Z,99474.00
2022-10-11T01:46:21.602Z,99471.09
2022-10-11T01:48:52.800Z,99472.50
2022-10-11T01:51:24.820Z,99473.91
2022-10-11T01:54:17.887Z,99483.34
2022-10-11T01:57:15.631Z,99483.97
2022-10-11T02:00:00.193Z,99487.47
2022-10-11T02:03:00.229Z,99481.88
2022-10-11T02:05:39.968Z,99487.00
2022-10-11T02:08:19.527Z,99487.59
2022-10-11T02:10:55.745Z,99493.53
2022-10-11T02:13:33.359Z,99494.34
2022-10-11T02:16:11.045Z,99499.50
2022-10-11T02:18:46.876Z,99497.63
2022-10-11T02:21:20.798Z,99494.13
2022-10-11T02:23:56.551Z,99492.25
2022-10-11T02:26:31.805Z,99500.09
2022-10-11T02:29:06.355Z,99495.56
2022-10-11T02:31:37.728Z,99500.09
2022-10-11T02:34:16.280Z,99505.47
2022-10-11T02:36:57.140Z,99510.38
2022-10-11T02:39:32.727Z,99504.56
2022-10-11T02:42:08.398Z,99507.25
2022-10-11T02:44:44.230Z,99507.00
2022-10-11T02:47:14.056Z,99507.00
2022-10-11T02:49:44.134Z,99517.72
2022-10-11T02:52:12.787Z,99524.72
2022-10-11T02:54:41.417Z,99527.19
2022-10-11T02:57:10.108Z,99532.53
2022-10-11T02:59:38.881Z,99533.97
2022-10-11T03:02:07.838Z,99533.34
2022-10-11T03:04:36.813Z,99541.41
2022-10-11T03:07:07.057Z,99551.13
2022-10-11T03:09:35.739Z,99546.91
2022-10-11T03:12:04.552Z,99558.47
2022-10-11T03:14:33.301Z,99561.16
2022-10-11T03:17:23.658Z,99557.22
2022-10-11T03:19:50.844Z,99566.31
2022-10-11T03:22:20.882Z,99570.00
2022-10-11T03:24:49.590Z,99569.66
2022-10-11T03:27:18.554Z,99582.03
2022-10-11T03:29:47.212Z,99577.13
2022-10-11T03:32:15.940Z,99585.53
2022-10-11T03:34:44.542Z,99594.16
2022-10-11T03:37:13.176Z,99589.66
2022-10-11T03:39:43.283Z,99593.97
2022-10-11T03:42:12.055Z,99600.59
2022-10-11T03:44:41.788Z,99609.34
2022-10-11T03:47:10.701Z,99609.41
2022-10-11T03:49:43.392Z,99614.75
2022-10-11T03:52:12.889Z,99613.75
2022-10-11T03:54:43.176Z,99621.31
2022-10-11T03:57:11.855Z,99626.47
2022-10-11T03:59:40.496Z,99632.28
2022-10-11T04:02:09.244Z,99631.25
2022-10-11T04:04:37.974Z,99632.06
2022-10-11T04:07:06.694Z,99635.78
2022-10-11T04:09:35.619Z,99637.88
2022-10-11T04:12:06.031Z,99637.28
2022-10-11T04:14:34.713Z,99644.50
2022-10-11T04:17:03.262Z,99646.59
2022-10-11T04:19:31.848Z,99649.50
2022-10-11T04:22:00.479Z,99652.19
2022-10-11T04:24:29.274Z,99646.22
2022-10-11T04:26:58.003Z,99656.13
2022-10-11T04:29:32.409Z,99658.00
2022-10-11T04:32:01.440Z,99659.03
2022-10-11T04:34:30.168Z,99659.88
2022-10-11T04:36:59.013Z,99664.03
2022-10-11T04:39:28.561Z,99661.34
2022-10-11T04:41:57.110Z,99672.69
2022-10-11T04:44:27.408Z,99681.78
2022-10-11T04:46:56.098Z,99677.25
2022-10-11T04:49:25.294Z,99684.66
2022-10-11T04:51:54.254Z,99680.13
2022-10-11T04:54:23.208Z,99678.72
2022-10-11T04:56:51.926Z,99684.09
2022-10-11T04:59:50.003Z,99687.66
2022-10-11T05:02:19.220Z,99693.25
2022-10-11T05:04:48.076Z,99696.34
2022-10-11T05:07:16.771Z,99694.50
2022-10-11T05:09:45.521Z,99699.28
2022-10-11T05:12:14.258Z,99709.41
2022-10-11T05:14:42.823Z,99703.06
2022-10-11T05:17:12.839Z,99710.56
2022-10-11T05:19:41.471Z,99715.38
2022-10-11T05:22:10.342Z,99718.72
2022-10-11T05:24:39.069Z,99720.00
2022-10-11T05:27:07.883Z,99722.72
2022-10-11T05:29:36.522Z,99730.16
2022-10-11T05:32:05.624Z,99733.09
2022-10-11T05:34:35.617Z,99736.25
2022-10-11T05:37:04.170Z,99736.53
2022-10-11T05:39:32.984Z,99740.66
2022-10-11T05:42:01.636Z,99745.47
2022-10-11T05:44:30.227Z,99752.28
2022-10-11T05:46:58.826Z,99752.09
2022-10-11T05:49:27.779Z,99763.88
2022-10-11T05:51:57.869Z,99762.63
2022-10-11T05:54:26.618Z,99776.69
2022-10-11T05:56:55.237Z,99776.28
2022-10-11T05:59:23.833Z,99784.75
2022-10-11T06:01:52.661Z,99789.47
2022-10-11T06:04:21.409Z,99786.81
2022-10-11T06:06:49.966Z,99789.25
2022-10-11T06:09:20.060Z,99791.56
2022-10-11T06:11:49.498Z,99794.03
2022-10-11T06:14:18.367Z,99794.03
2022-10-11T06:16:47.013Z,99804.78
2022-10-11T06:19:15.737Z,99805.19
2022-10-11T06:21:45.317Z,99806.41
2022-10-11T06:24:14.062Z,99807.66
2022-10-11T06:26:44.040Z,99801.47
2022-10-11T06:29:12.668Z,99814.22
2022-10-11T06:31:41.288Z,99819.56
2022-10-11T06:34:09.913Z,99812.94
2022-10-11T06:36:38.546Z,99809.47
2022-10-11T06:39:07.528Z,99821.63
2022-10-11T06:41:36.454Z,99817.28
2022-10-11T06:44:09.695Z,99822.00
2022-10-11T06:46:42.836Z,99829.59
2022-10-11T06:49:12.178Z,99822.56
2022-10-11T06:51:40.887Z,99831.59
2022-10-11T06:54:09.465Z,99832.59
2022-10-11T06:56:38.420Z,99834.66
2022-10-11T06:59:08.705Z,99832.16
2022-10-11T07:01:37.347Z,99835.44
2022-10-11T07:04:06.678Z,99831.72
2022-10-11T07:06:40.449Z,99840.56
2022-10-11T07:09:09.926Z,99849.38
2022-10-11T07:11:38.793Z,99847.31
2022-10-11T07:14:11.489Z,99849.13
2022-10-11T07:16:40.075Z,99851.16
2022-10-11T07:19:08.757Z,99859.16
2022-10-11T07:21:37.575Z,99859.34
2022-10-11T07:24:07.369Z,99857.84
2022-10-11T07:26:38.899Z,99862.34
2022-10-11T07:29:11.464Z,99857.38
2022-10-11T07:31:42.929Z,99864.38
2022-10-11T07:34:11.895Z,99864.31
2022-10-11T07:36:40.802Z,99864.31
2022-10-11T07:39:10.111Z,99868.22
2022-10-11T07:41:44.565Z,99869.44
2022-10-11T07:44:15.081Z,99873.50
2022-10-11T07:46:43.852Z,99868.13
2022-10-11T07:49:12.451Z,99867.13
2022-10-11T07:51:41.046Z,99870.47
2022-10-11T07:54:09.887Z,99873.31
2022-10-11T07:56:40.245Z,99877.97
2022-10-11T07:59:08.976Z,99878.16
2022-10-11T08:01:39.143Z,99875.19
2022-10-11T08:04:07.887Z,99875.56
2022-10-11T08:06:37.378Z,99880.28
2022-10-11T08:09:06.762Z,99880.06
2022-10-11T08:11:38.471Z,99881.66
2022-10-11T08:14:11.328Z,99877.50
2022-10-11T08:16:41.699Z,99882.00
2022-10-11T08:19:11.885Z,99881.69
2022-10-11T08:21:40.699Z,99886.84
2022-10-11T08:24:10.114Z,99884.84
2022-10-11T08:26:38.750Z,99890.22
2022-10-11T08:29:07.571Z,99890.22
2022-10-11T08:31:36.770Z,99891.56
2022-10-11T08:34:06.905Z,99894.25
2022-10-11T08:36:35.747Z,99885.59
2022-10-11T08:39:05.349Z,99893.00
2022-10-11T08:41:43.165Z,99896.31
2022-10-11T08:44:58.699Z,99891.69
2022-10-11T08:47:35.102Z,99895.41
2022-10-11T08:50:08.918Z,99884.91
2022-10-11T08:52:49.773Z,99892.44
2022-10-11T08:55:27.424Z,99890.91
2022-10-11T08:57:57.965Z,99887.03
2022-10-11T09:00:34.157Z,99889.97
2022-10-11T09:03:22.855Z,99882.91
2022-10-11T09:06:15.026Z,99888.88
2022-10-11T09:09:06.185Z,99890.53
2022-10-11T09:11:51.500Z,99897.19
2022-10-11T09:15:24.905Z,99889.47
2022-10-11T09:18:17.580Z,99890.50
2022-10-11T09:21:03.140Z,99888.97
2022-10-11T09:23:57.581Z,99894.34
2022-10-11T09:26:33.064Z,99896.72
2022-10-11T09:29:16.479Z,99893.34
2022-10-11T09:31:53.314Z,99891.88
2022-10-11T09:34:27.388Z,99890.25
2022-10-11T09:37:12.610Z,99886.69
2022-10-11T09:39:49.180Z,99885.13
2022-10-11T09:42:17.795Z,99889.16
2022-10-11T09:44:50.786Z,99890.78
2022-10-11T09:47:25.782Z,99894.41
2022-10-11T09:50:01.679Z,99886.59
2022-10-11T09:52:32.021Z,99893.19
2022-10-11T09:55:03.577Z,99887.41
2022-10-11T09:57:37.077Z,99885.94
2022-10-11T10:00:20.854Z,99888.94
2022-10-11T10:02:52.344Z,99898.69
2022-10-11T10:05:23.943Z,99887.22
2022-10-11T10:08:22.539Z,99888.25
2022-10-11T10:11:02.370Z,99884.78
2022-10-11T10:13:43.314Z,99886.69
2022-10-11T10:16:27.235Z,99887.88
2022-10-11T10:18:59.726Z,99896.75
2022-10-11T10:21:32.789Z,99893.31
2022-10-11T10:24:08.757Z,99891.47
2022-10-11T10:26:37.488Z,99897.03
2022-10-11T10:29:18.712Z,99899.47
2022-10-11T10:35:13.547Z,99891.81
2022-10-11T10:37:49.905Z,99901.31
2022-10-11T10:40:27.041Z,99886.34
2022-10-11T10:42:55.772Z,99903.94
2022-10-11T10:45:35.193Z,99908.94
2022-10-11T10:48:27.572Z,99903.59
2022-10-11T10:51:05.968Z,99904.97
2022-10-11T10:53:43.694Z,99908.09
2022-10-11T10:56:20.646Z,99910.34
2022-10-11T10:59:15.360Z,99904.78
2022-10-11T11:02:11.181Z,99906.06
2022-10-11T11:05:02.626Z,99905.25
2022-10-11T11:07:42.061Z,99907.75
2022-10-11T11:10:20.418Z,99904.69
2022-10-11T11:13:05.107Z,99904.25
2022-10-11T11:15:44.628Z,99903.53
2022-10-11T11:18:30.285Z,99906.94
2022-10-11T11:21:23.680Z,99908.00
2022-10-11T11:24:09.614Z,99900.75
2022-10-11T11:26:49.042Z,99904.00
2022-10-11T11:29:39.528Z,99897.81
2022-10-11T11:32:22.809Z,99897.44
2022-10-11T11:35:01.875Z,99890.78
2022-10-11T11:37:35.826Z,99895.22
2022-10-11T11:40:15.223Z,99896.63
2022-10-11T11:42:50.301Z,99890.78
2022-10-11T11:45:26.107Z,99892.91
2022-10-11T11:48:03.773Z,99895.47
2022-10-11T11:50:40.244Z,99893.34
2022-10-11T11:53:17.563Z,99892.41
2022-10-11T11:55:54.599Z,99889.84
2022-10-11T11:58:37.117Z,99893.47
2022-10-11T12:01:30.930Z,99886.56
2022-10-11T12:04:07.108Z,99881.66
2022-10-11T12:06:52.399Z,99882.00
2022-10-11T12:09:28.176Z,99883.53
2022-10-11T12:12:01.425Z,99882.59
2022-10-11T12:14:41.295Z,99889.28
2022-10-11T12:17:18.894Z,99880.59
2022-10-11T12:20:24.227Z,99883.53
2022-10-11T12:22:58.400Z,99877.44
2022-10-11T12:26:19.249Z,99881.75
2022-10-11T12:29:46.661Z,99872.38
2022-10-11T12:32:57.470Z,99873.91
2022-10-11T12:36:07.343Z,99875.19
2022-10-11T12:38:40.171Z,99869.69
2022-10-11T12:41:53.661Z,99868.13
2022-10-11T12:44:26.358Z,99880.19
2022-10-11T12:47:34.083Z,99871.53
2022-10-11T12:50:20.933Z,99872.00
2022-10-11T12:53:03.025Z,99869.31
2022-10-11T12:55:51.403Z,99867.09
2022-10-11T12:58:40.547Z,99871.63
2022-10-11T13:01:26.689Z,99869.66
2022-10-11T13:04:08.105Z,99873.44
2022-10-11T13:06:48.976Z,99870.72
2022-10-11T13:09:28.661Z,99873.09
2022-10-11T13:12:04.249Z,99876.34
2022-10-11T13:14:38.435Z,99871.78
2022-10-11T13:17:17.959Z,99878.69
2022-10-11T13:19:47.052Z,99871.44
2022-10-11T13:22:21.755Z,99876.81
2022-10-11T13:24:50.702Z,99875.63
2022-10-11T13:27:24.513Z,99874.44
2022-10-11T13:29:56.781Z,99878.19
2022-10-11T13:32:28.684Z,99879.47
2022-10-11T13:35:01.793Z,99878.19
2022-10-11T13:37:42.169Z,99881.13
2022-10-11T13:40:16.051Z,99875.34
2022-10-11T13:42:45.463Z,99871.03
2022-10-11T13:45:17.490Z,99874.53
2022-10-11T13:47:48.328Z,99877.47
2022-10-11T13:50:31.918Z,99868.34
2022-10-11T13:53:05.229Z,99865.88
2022-10-11T13:55:37.451Z,99872.09
2022-10-11T13:58:19.073Z,99861.34
2022-10-11T14:00:57.248Z,99858.06
2022-10-11T14:03:40.152Z,99864.22
2022-10-11T14:06:09.960Z,99863.16
2022-10-11T14:08:46.065Z,99866.91
2022-10-11T14:11:16.933Z,99872.72
2022-10-11T14:13:47.914Z,99860.31
2022-10-11T14:16:32.099Z,99869.44
2022-10-11T14:19:12.762Z,99863.09
2022-10-11T14:21:54.046Z,99864.50
2022-10-11T14:24:24.773Z,99856.91
2022-10-11T14:26:57.725Z,99858.31
2022-10-11T14:29:30.727Z,99857.50
2022-10-11T14:32:05.850Z,99859.13
2022-10-11T14:34:36.490Z,99859.50
2022-10-11T14:37:05.416Z,99864.88
2022-10-11T14:39:35.629Z,99863.16
2022-10-11T14:42:04.915Z,99866.06
2022-10-11T14:44:34.484Z,99863.75
2022-10-11T14:47:06.673Z,99866.44
2022-10-11T14:49:38.506Z,99863.16
2022-10-11T14:52:08.987Z,99859.19
2022-10-11T14:54:39.482Z,99867.34
2022-10-11T14:57:13.706Z,99867.94
2022-10-11T14:59:42.552Z,99866.53
2022-10-11T15:02:13.680Z,99868.63
2022-10-11T15:04:42.337Z,99865.78
2022-10-11T15:07:13.991Z,99874.53
2022-10-11T15:09:44.366Z,99872.53
2022-10-11T15:12:13.042Z,99869.00
2022-10-11T15:14:41.766Z,99868.88
2022-10-11T15:17:12.931Z,99869.41
2022-10-11T15:19:41.624Z,99872.19
2022-10-11T15:22:10.463Z,99870.97
2022-10-11T15:24:39.352Z,99871.28
2022-10-11T15:27:10.519Z,99874.41
2022-10-11T15:29:39.176Z,99871.78
2022-10-11T15:32:08.446Z,99873.50
2022-10-11T15:34:37.172Z,99870.06
2022-10-11T15:37:05.755Z,99869.72
2022-10-11T15:39:34.438Z,99874.69
2022-10-11T15:42:03.213Z,99872.47
2022-10-11T15:44:34.650Z,99873.94
2022-10-11T15:47:05.458Z,99878.34
2022-10-11T15:49:37.211Z,99878.72
2022-10-11T15:52:07.427Z,99881.84
2022-10-11T15:54:37.175Z,99882.28
2022-10-11T15:57:06.863Z,99879.59
2022-10-11T15:59:36.962Z,99880.66
2022-10-11T16:02:06.461Z,99878.91
2022-10-11T16:04:35.376Z,99887.25
2022-10-11T16:07:04.483Z,99881.47
2022-10-11T16:09:33.573Z,99882.00
2022-10-11T16:12:02.366Z,99893.34
2022-10-11T16:14:31.603Z,99894.41
2022-10-11T16:17:03.424Z,99895.28
2022-10-11T16:19:32.489Z,99892.84
2022-10-11T16:22:01.305Z,99894.38
2022-10-11T16:24:29.998Z,99898.25
2022-10-11T16:26:58.650Z,99902.41
2022-10-11T16:29:27.835Z,99905.94
2022-10-11T16:31:56.501Z,99902.47
2022-10-11T16:34:26.940Z,99905.41
2022-10-11T16:36:55.550Z,99906.47
2022-10-11T16:39:24.404Z,99912.06
2022-10-11T16:41:53.156Z,99912.47
2022-10-11T16:44:25.361Z,99914.16
2022-10-11T16:46:54.086Z,99916.66
2022-10-11T16:49:26.997Z,99915.88
2022-10-11T16:51:59.344Z,99916.72
2022-10-11T16:54:30.329Z,99923.28
2022-10-11T16:57:01.566Z,99916.69
2022-10-11T16:59:33.096Z,99921.47
2022-10-11T17:02:05.132Z,99927.69
2022-10-11T17:04:36.601Z,99929.34
2022-10-11T17:07:05.344Z,99929.94
2022-10-11T17:09:34.172Z,99927.88
2022-10-11T17:12:02.887Z,99928.72
2022-10-11T17:14:32.298Z,99926.25
2022-10-11T17:17:01.329Z,99928.28
2022-10-11T17:19:34.460Z,99924.81
2022-10-11T17:22:05.539Z,99926.66
2022-10-11T17:24:38.537Z,99928.31
2022-10-11T17:27:10.301Z,99922.38
2022-10-11T17:29:40.738Z,99928.31
2022-10-11T17:32:11.180Z,99927.28
2022-10-11T17:34:40.797Z,99930.78
2022-10-11T17:37:12.941Z,99932.66
2022-10-11T17:39:42.647Z,99928.72
2022-10-11T17:42:11.974Z,99936.97
2022-10-11T17:44:43.437Z,99936.75
2022-10-11T17:47:16.073Z,99945.59
2022-10-11T17:49:46.066Z,99938.16
2022-10-11T17:52:16.693Z,99940.81
2022-10-11T17:54:47.307Z,99937.16
2022-10-11T17:57:16.802Z,99943.09
2022-10-11T17:59:46.471Z,99942.88
2022-10-11T18:02:15.303Z,99937.72
2022-10-11T18:04:44.919Z,99946.56
2022-10-11T18:07:15.589Z,99948.44
2022-10-11T18:09:44.895Z,99946.78
2022-10-11T18:12:15.220Z,99947.56
2022-10-11T18:14:44.698Z,99954.69
2022-10-11T18:17:13.720Z,99947.09
2022-10-11T18:19:42.969Z,99954.09
2022-10-11T18:22:12.412Z,99957.78
2022-10-11T18:24:43.143Z,99948.28
2022-10-11T18:27:12.380Z,99953.25
2022-10-11T18:29:41.598Z,99947.25
2022-10-11T18:32:10.530Z,99947.25
2022-10-11T18:34:39.379Z,99946.59
2022-10-11T18:37:08.732Z,99941.03
2022-10-11T18:39:37.714Z,99941.22
2022-10-11T18:42:08.230Z,99948.16
2022-10-11T18:44:37.247Z,99942.78
2022-10-11T18:47:05.952Z,99944.00
2022-10-11T18:49:34.566Z,99942.09
2022-10-11T18:52:03.163Z,99940.84
2022-10-11T18:54:32.150Z,99936.28
2022-10-11T18:57:00.788Z,99936.09
2022-10-11T18:59:33.346Z,99931.94
2022-10-11T19:02:04.128Z,99933.19
2022-10-11T19:04:34.404Z,99933.75
2022-10-11T19:07:03.346Z,99934.53
2022-10-11T19:09:32.406Z,99934.41
2022-10-11T19:12:01.193Z,99930.94
2022-10-11T19:14:31.615Z,99928.00
2022-10-11T19:17:00.375Z,99933.06
2022-10-11T19:19:30.948Z,99929.75
2022-10-11T19:22:00.443Z,99934.91
2022-10-11T19:24:31.511Z,99933.44
2022-10-11T19:27:02.724Z,99925.59
2022-10-11T19:29:34.538Z,99923.53
2022-10-11T19:32:04.585Z,99922.66
2022-10-11T19:34:33.287Z,99929.28
2022-10-11T19:37:03.476Z,99928.41
2022-10-11T19:39:32.641Z,99929.75
2022-10-11T19:42:02.083Z,99927.91
2022-10-11T19:44:35.789Z,99930.88
2022-10-11T19:47:07.650Z,99935.91
2022-10-11T19:49:36.308Z,99939.81
2022-10-11T19:52:05.157Z,99930.31
2022-10-11T19:54:34.008Z,99933.13
2022-10-11T19:57:02.702Z,99939.22
2022-10-11T19:59:32.830Z,99940.88
2022-10-11T20:02:01.676Z,99939.22
2022-10-11T20:07:18.896Z,99939.59
2022-10-11T20:09:47.494Z,99944.56
2022-10-11T20:12:16.198Z,99952.25
2022-10-11T20:14:46.288Z,99946.47
2022-10-11T20:17:16.187Z,99949.06
2022-10-11T20:19:44.837Z,99949.25
2022-10-11T20:22:13.569Z,99947.94
2022-10-11T20:24:42.109Z,99948.34
2022-10-11T20:27:10.751Z,99942.72
2022-10-11T20:29:39.363Z,99944.34
2022-10-11T20:32:09.348Z,99943.66
2022-10-11T20:34:39.523Z,99951.06
2022-10-11T20:37:08.144Z,99947.09
2022-10-11T20:39:37.037Z,99946.81
2022-10-11T20:42:05.836Z,99947.91
2022-10-11T20:44:34.549Z,99954.00
2022-10-11T20:47:04.343Z,99948.19
2022-10-11T20:49:34.678Z,99948.97
2022-10-11T20:52:03.256Z,99949.34
2022-10-11T20:54:34.226Z,99946.22
2022-10-11T20:57:03.100Z,99946.28
2022-10-11T20:59:31.774Z,99941.63
2022-10-11T21:02:00.418Z,99951.81
2022-10-11T21:04:29.203Z,99950.84
2022-10-11T21:06:59.225Z,99946.63
2022-10-11T21:09:27.860Z,99944.63
2022-10-11T21:11:56.572Z,99947.16
2022-10-11T21:14:25.370Z,99951.00
2022-10-11T21:16:54.018Z,99953.66
2022-10-11T21:19:22.605Z,99958.22
2022-10-11T21:21:53.855Z,99961.69
2022-10-11T21:24:24.390Z,99957.38
2022-10-11T21:26:56.941Z,99956.09
2022-10-11T21:29:28.412Z,99958.41
2022-10-11T21:31:57.036Z,99955.75
2022-10-11T21:34:25.727Z,99952.34
2022-10-11T21:36:54.323Z,99954.81
2022-10-11T21:39:24.492Z,99955.81
2022-10-11T21:41:53.180Z,99957.03
2022-10-11T21:44:21.837Z,99955.13
2022-10-11T21:47:07.366Z,99952.53
2022-10-11T21:49:36.166Z,99956.59
2022-10-11T21:52:05.953Z,99951.00
2022-10-11T21:54:36.119Z,99949.97
2022-10-11T21:57:04.808Z,99949.06
2022-10-11T21:59:33.546Z,99952.38
2022-10-11T22:02:02.578Z,99946.75
2022-10-11T22:04:31.455Z,99952.81
2022-10-11T22:07:00.317Z,99949.81
2022-10-11T22:09:29.904Z,99950.78
2022-10-11T22:12:00.046Z,99945.13
2022-10-11T22:14:29.593Z,99948.88
2022-10-11T22:16:58.625Z,99951.44
2022-10-11T22:19:27.370Z,99948.69
2022-10-11T22:21:56.006Z,99947.88
2022-10-11T22:24:25.755Z,99954.28
2022-10-11T22:26:54.392Z,99950.78
2022-10-11T22:29:24.473Z,99946.00
2022-10-11T22:31:53.061Z,99953.72
2022-10-11T22:34:21.683Z,99956.13
2022-10-11T22:36:50.317Z,99956.47
2022-10-11T22:39:19.054Z,99955.19
2022-10-11T22:41:47.764Z,99958.41
2022-10-11T22:44:16.880Z,99964.72
2022-10-11T22:46:46.952Z,99965.28
2022-10-11T22:49:15.616Z,99963.63
2022-10-11T22:51:44.484Z,99962.06
2022-10-11T22:54:13.564Z,99956.75
2022-10-11T22:56:42.232Z,99961.88
2022-10-11T22:59:11.054Z,99965.53
2022-10-11T23:01:39.666Z,99959.91
2022-10-11T23:04:09.688Z,99962.75
2022-10-11T23:06:38.361Z,99961.75
2022-10-11T23:09:07.268Z,99962.91
2022-10-11T23:11:35.894Z,99961.25
2022-10-11T23:14:04.671Z,99957.72
2022-10-11T23:16:33.436Z,99953.81
2022-10-11T23:19:04.240Z,99952.66
2022-10-11T23:21:34.567Z,99952.94
2022-10-11T23:24:03.124Z,99957.25
2022-10-11T23:26:31.712Z,99954.19
2022-10-11T23:29:00.354Z,99952.69
2022-10-11T23:31:28.992Z,99955.75
2022-10-11T23:33:57.643Z,99955.16
2022-10-11T23:36:27.616Z,99951.13
2022-10-11T23:39:00.239Z,99945.75
2022-10-11T23:41:30.911Z,99954.38
2022-10-11T23:43:59.820Z,99957.59
2022-10-11T23:46:28.449Z,99958.03
2022-10-11T23:48:57.107Z,99946.16
2022-10-11T23:51:25.810Z,99955.16
2022-10-11T23:53:54.522Z,99955.81
2022-10-11T23:56:24.715Z,99957.16
2022-10-11T23:58:53.486Z,99959.13
